Stanford, KY (40484)

7:43 PM EST on February 24, 2017 (GMT -0500)
Powell | | Change Station
Active Advisory: Severe Thunderstorm Watch

Elev 1020 ft 37.58 °N, 84.77 °W | Updated 8 minutes ago

Partly Cloudy
Partly Cloudy
68 °F
Feels Like 68 °F
N
9
Wind Variable Wind from SSW

Today
High -- | Low -- °F
--% Chance of Precip.
Yesterday
High -- | Low -- °F
Precip. -- in
Pressure 29.61 in
Visibility 10.0 miles
Clouds Clear
Dew Point 52 °F
Humidity 56%
Rainfall 0.00 in
Snow Depth Not available.
7:16 AM 6:27 PM
Waning Crescent, 3% visible
METAR KDVK 250035Z AUTO 20008KT 10SM CLR 20/11 A2961 RMK AO2
Pressure 29.61 in
Visibility 10.0 miles
Clouds Clear
Dew Point 52 °F
Humidity 56%
Rainfall 0.00 in
Snow Depth Not available.
7:16 AM 6:27 PM
Waning Crescent, 3% visible
METAR KDVK 250035Z AUTO 20008KT 10SM CLR 20/11 A2961 RMK AO2

Get Your Daily Forecast Email!

Thanks for signing up!

Be on the lookout for a verification email in your inbox.

You'll start receiving the daily forecast at 8 AM.

×

10-Day Weather Forecast

Almanac

Astronomy

Feb. 24, 2017 Rise Set
Actual Time
Civil Twilight
Nautical Twilight
Astronomical Twilight
Moon
Length of Visible Light
Length of Day
Tomorrow will be .
, % of the Moon is Illuminated

Today's Extremes

State Highs State Lows

Community

WunderPhotos

Upload Photos

1,962,540 photos uploaded!

WunderBlog® & News

Nearby

Air Quality

  Air Quality AQ Index Pollutant
Not available.

Snow Depth

Station Depth Elevation

Earthquake Activity

City Distance Mag. Time & Date
Minimum magnitude displayed is 2.5.

Coastal Water Temperatures

Place Temperature

Stations

Nearby Weather Stations

Station Location Temp. Windchill Dew Point Humidity Wind Precip. Elev Updated Type
                   

Watches & Warnings

Severe Thunderstorm Watch
Issued: 7:24 PM EST Feb. 24, 2017 – National Weather Service

Severe Thunderstorm Watch 38 remains in effect until 200 am EST

KY
. Kentucky counties included are

Anderson Boone Bourbon
Boyle Bracken Bullitt
Campbell Carroll Casey
Clark Fayette Franklin
Gallatin Garrard Grant
green Hardin Harrison
Hart Henry Jefferson
Jessamine Kenton LaRue
Lewis Lincoln Madison
Marion Mason Mercer
Nelson Nicholas Oldham
Owen Pendleton Robertson
Scott Shelby Spencer
Taylor Trimble Washington
Woodford